createdAt,value
2018-08-22T00:00:19.021Z,21.10
2018-08-22T00:02:46.296Z,14.60
2018-08-22T00:05:14.490Z,12.47
2018-08-22T00:07:42.757Z,19.03
2018-08-22T00:10:11.074Z,24.77
2018-08-22T00:12:39.330Z,19.07
2018-08-22T00:15:07.809Z,21.37
2018-08-22T00:17:36.010Z,15.80
2018-08-22T00:20:04.214Z,17.90
2018-08-22T00:22:32.564Z,24.53
2018-08-22T00:25:00.794Z,20.17
2018-08-22T00:27:29.065Z,19.23
2018-08-22T00:29:57.290Z,13.40
2018-08-22T00:32:25.462Z,25.37
2018-08-22T00:34:53.657Z,23.13
2018-08-22T00:37:21.848Z,47.27
2018-08-22T00:39:50.110Z,28.23
2018-08-22T00:42:18.397Z,17.77
2018-08-22T00:44:46.689Z,17.93
2018-08-22T00:47:14.974Z,17.47
2018-08-22T00:49:43.165Z,16.03
2018-08-22T00:52:11.379Z,16.13
2018-08-22T00:54:39.766Z,17.33
2018-08-22T00:57:08.095Z,17.43
2018-08-22T00:59:36.326Z,16.47
2018-08-22T01:02:04.606Z,15.90
2018-08-22T01:04:32.942Z,22.43
2018-08-22T01:07:01.174Z,19.97
2018-08-22T01:09:29.364Z,19.20
2018-08-22T01:11:57.685Z,18.10
2018-08-22T01:14:25.874Z,17.53
2018-08-22T01:16:54.090Z,15.77
2018-08-22T01:19:22.319Z,19.90
2018-08-22T01:21:50.517Z,19.50
2018-08-22T01:24:18.734Z,13.40
2018-08-22T01:26:46.939Z,23.80
2018-08-22T01:29:15.172Z,14.33
2018-08-22T01:31:43.362Z,17.83
2018-08-22T01:34:11.600Z,14.80
2018-08-22T01:36:39.817Z,17.77
2018-08-22T01:39:08.386Z,13.90
2018-08-22T01:41:36.584Z,18.50
2018-08-22T01:44:04.798Z,13.93
2018-08-22T01:46:33.161Z,17.63
2018-08-22T01:49:01.366Z,30.67
2018-08-22T01:51:29.570Z,29.43
2018-08-22T01:53:57.773Z,16.70
2018-08-22T01:56:25.965Z,21.00
2018-08-22T01:58:54.203Z,16.70
2018-08-22T02:01:22.394Z,19.27
2018-08-22T02:03:50.907Z,17.03
2018-08-22T02:06:19.194Z,23.27
2018-08-22T02:08:47.390Z,18.47
2018-08-22T02:11:16.770Z,20.93
2018-08-22T02:13:45.070Z,20.67
2018-08-22T02:16:13.269Z,17.13
2018-08-22T02:18:41.550Z,16.00
2018-08-22T02:21:09.741Z,22.30
2018-08-22T02:23:37.929Z,16.40
2018-08-22T02:26:06.151Z,16.80
2018-08-22T02:28:34.359Z,17.13
2018-08-22T02:31:09.314Z,17.60
2018-08-22T02:33:37.519Z,17.50
2018-08-22T02:36:05.855Z,21.80
2018-08-22T02:38:34.074Z,18.70
2018-08-22T02:41:02.311Z,15.97
2018-08-22T02:43:30.586Z,19.77
2018-08-22T02:45:58.807Z,17.20
2018-08-22T02:48:27.055Z,25.60
2018-08-22T02:50:55.274Z,17.50
2018-08-22T02:53:23.487Z,20.17
2018-08-22T02:55:51.728Z,18.13
2018-08-22T02:58:19.920Z,19.40
2018-08-22T03:00:48.218Z,23.70
2018-08-22T03:03:16.406Z,15.33
2018-08-22T03:05:44.620Z,20.70
2018-08-22T03:08:12.843Z,19.60
2018-08-22T03:10:41.054Z,18.27
2018-08-22T03:13:09.319Z,19.47
2018-08-22T03:15:37.662Z,17.87
2018-08-22T03:18:05.863Z,15.47
2018-08-22T03:20:34.087Z,15.67
2018-08-22T03:23:02.315Z,23.70
2018-08-22T03:25:30.568Z,19.93
2018-08-22T03:27:58.782Z,14.90
2018-08-22T03:30:27.005Z,18.23
2018-08-22T03:32:55.210Z,22.50
2018-08-22T03:35:23.498Z,17.90
2018-08-22T03:37:51.999Z,18.23
2018-08-22T03:40:20.283Z,18.93
2018-08-22T03:42:48.566Z,22.53
2018-08-22T03:45:16.886Z,18.43
2018-08-22T03:47:45.162Z,17.33
2018-08-22T03:50:13.395Z,15.80
2018-08-22T03:52:41.704Z,24.07
2018-08-22T03:55:09.899Z,16.10
2018-08-22T03:57:38.795Z,22.43
2018-08-22T04:00:07.055Z,23.13
2018-08-22T04:02:35.375Z,26.30
2018-08-22T04:05:05.650Z,23.73
2018-08-22T04:07:33.862Z,22.20
2018-08-22T04:10:02.056Z,18.47
2018-08-22T04:12:30.318Z,17.00
2018-08-22T04:14:58.573Z,26.33
2018-08-22T04:17:32.683Z,21.10
2018-08-22T04:20:01.211Z,20.57
2018-08-22T04:22:29.475Z,22.17
2018-08-22T04:24:57.687Z,28.57
2018-08-22T04:27:25.915Z,19.37
2018-08-22T04:29:54.178Z,18.63
2018-08-22T04:32:25.542Z,22.23
2018-08-22T04:34:53.845Z,20.93
2018-08-22T04:37:22.086Z,32.43
2018-08-22T04:39:50.551Z,30.90
2018-08-22T04:42:18.783Z,32.33
2018-08-22T04:44:47.582Z,18.30
2018-08-22T04:47:15.787Z,23.03
2018-08-22T04:49:43.982Z,24.80
2018-08-22T04:52:12.410Z,37.47
2018-08-22T04:54:40.599Z,41.20
2018-08-22T04:57:08.815Z,32.33
2018-08-22T04:59:37.020Z,38.10
2018-08-22T05:02:05.217Z,52.90
2018-08-22T05:04:33.433Z,48.00
2018-08-22T05:07:01.655Z,48.90
2018-08-22T05:09:29.853Z,42.67
2018-08-22T05:11:58.105Z,38.00
2018-08-22T05:14:26.323Z,46.13
2018-08-22T05:16:54.535Z,40.47
2018-08-22T05:19:22.755Z,49.33
2018-08-22T05:21:50.951Z,50.53
2018-08-22T05:24:19.158Z,62.63
2018-08-22T05:26:47.383Z,64.13
2018-08-22T05:29:15.615Z,43.03
2018-08-22T05:31:43.839Z,36.80
2018-08-22T05:34:12.062Z,28.53
2018-08-22T05:36:40.259Z,39.43
2018-08-22T05:39:10.618Z,46.77
2018-08-22T05:41:38.820Z,48.90
2018-08-22T05:44:07.027Z,32.13
2018-08-22T05:46:35.227Z,44.80
2018-08-22T05:49:03.481Z,43.13
2018-08-22T05:51:31.750Z,32.40
2018-08-22T05:53:59.987Z,45.47
2018-08-22T05:56:28.207Z,30.47
2018-08-22T05:58:56.407Z,38.87
2018-08-22T06:01:24.619Z,41.07
2018-08-22T06:03:52.834Z,38.73
2018-08-22T06:06:21.093Z,32.43
2018-08-22T06:08:49.290Z,34.93
2018-08-22T06:11:17.543Z,33.03
2018-08-22T06:13:45.755Z,27.40
2018-08-22T06:16:13.955Z,27.00
2018-08-22T06:18:42.211Z,24.40
2018-08-22T06:21:10.420Z,38.83
2018-08-22T06:23:38.607Z,24.90
2018-08-22T06:26:06.836Z,37.27
2018-08-22T06:28:35.057Z,27.23
2018-08-22T06:31:03.262Z,30.03
2018-08-22T06:33:31.499Z,36.20
2018-08-22T06:35:59.691Z,31.87
2018-08-22T06:38:27.919Z,27.53
2018-08-22T06:40:56.135Z,36.03
2018-08-22T06:43:24.346Z,24.60
2018-08-22T06:45:52.542Z,31.73
2018-08-22T06:48:20.763Z,23.50
2018-08-22T06:50:48.994Z,27.60
2018-08-22T06:53:17.235Z,29.70
2018-08-22T06:55:45.444Z,28.63
2018-08-22T06:58:13.912Z,31.07
2018-08-22T07:00:42.118Z,26.70
2018-08-22T07:03:10.385Z,32.80
2018-08-22T07:05:38.649Z,37.27
2018-08-22T07:08:06.869Z,24.33
2018-08-22T07:10:35.063Z,34.20
2018-08-22T07:13:03.295Z,45.70
2018-08-22T07:15:31.612Z,50.43
2018-08-22T07:17:59.843Z,36.63
2018-08-22T07:20:28.052Z,45.23
2018-08-22T07:22:56.258Z,45.60
2018-08-22T07:25:24.447Z,49.80
2018-08-22T07:27:52.688Z,41.70
2018-08-22T07:30:20.887Z,45.07
2018-08-22T07:32:49.170Z,40.63
2018-08-22T07:35:17.375Z,43.70
2018-08-22T07:37:45.566Z,44.93
2018-08-22T07:40:13.843Z,45.00
2018-08-22T07:42:42.074Z,39.53
2018-08-22T07:45:10.311Z,47.77
2018-08-22T07:47:38.524Z,40.10
2018-08-22T07:50:06.912Z,51.63
2018-08-22T07:52:35.083Z,58.13
2018-08-22T07:55:03.423Z,39.50
2018-08-22T07:57:31.667Z,35.80
2018-08-22T08:00:00.114Z,36.40
2018-08-22T08:02:28.316Z,40.53
2018-08-22T08:04:56.588Z,35.37
2018-08-22T08:07:24.818Z,33.40
2018-08-22T08:09:53.123Z,28.07
2018-08-22T08:12:25.506Z,28.53
2018-08-22T08:14:59.319Z,21.63
2018-08-22T08:17:27.620Z,23.10
2018-08-22T08:19:55.927Z,27.03
2018-08-22T08:22:24.196Z,23.83
2018-08-22T08:24:52.427Z,27.77
2018-08-22T08:27:20.674Z,25.97
2018-08-22T08:29:49.519Z,33.70
2018-08-22T08:32:17.727Z,25.97
2018-08-22T08:34:46.047Z,20.90
2018-08-22T08:37:14.283Z,22.23
2018-08-22T08:39:42.535Z,22.10
2018-08-22T08:42:10.864Z,26.73
2018-08-22T08:44:39.188Z,20.90
2018-08-22T08:47:07.387Z,19.30
2018-08-22T08:49:38.448Z,21.30
2018-08-22T08:52:06.638Z,24.00
2018-08-22T08:54:34.904Z,24.10
2018-08-22T08:57:03.155Z,19.80
2018-08-22T08:59:31.388Z,24.13
2018-08-22T09:01:59.650Z,22.70
2018-08-22T09:04:27.955Z,21.30
2018-08-22T09:06:56.203Z,21.27
2018-08-22T09:09:24.511Z,24.30
2018-08-22T09:11:59.829Z,27.27
2018-08-22T09:14:28.474Z,20.77
2018-08-22T09:16:57.394Z,18.00
2018-08-22T09:19:25.635Z,22.00
2018-08-22T09:21:53.872Z,21.53
2018-08-22T09:24:22.109Z,16.67
2018-08-22T09:26:50.335Z,17.47
2018-08-22T09:29:18.535Z,24.23
2018-08-22T09:31:46.798Z,17.50
2018-08-22T09:34:15.030Z,23.00
2018-08-22T09:36:43.271Z,38.77
2018-08-22T09:39:12.958Z,19.33
2018-08-22T09:41:41.451Z,25.27
2018-08-22T09:44:09.692Z,18.77
2018-08-22T09:46:38.986Z,16.10
2018-08-22T09:49:07.244Z,22.30
2018-08-22T09:51:35.523Z,34.47
2018-08-22T09:54:03.750Z,31.70
2018-08-22T09:56:32.234Z,24.43
2018-08-22T09:59:00.490Z,23.07
2018-08-22T10:01:33.877Z,21.70
2018-08-22T10:04:02.635Z,17.40
2018-08-22T10:06:40.742Z,21.20
2018-08-22T10:09:13.927Z,18.23
2018-08-22T10:11:42.216Z,19.97
2018-08-22T10:14:10.471Z,15.33
2018-08-22T10:16:38.771Z,21.13
2018-08-22T10:19:07.123Z,17.73
2018-08-22T10:21:35.370Z,20.20
2018-08-22T10:24:03.600Z,25.13
2018-08-22T10:26:32.894Z,16.93
2018-08-22T10:29:32.111Z,19.90
2018-08-22T10:32:00.468Z,17.80
2018-08-22T10:34:28.771Z,17.60
2018-08-22T10:36:57.036Z,18.67
2018-08-22T10:39:25.330Z,17.53
2018-08-22T10:41:53.560Z,19.70
2018-08-22T10:44:21.810Z,16.07
2018-08-22T10:46:50.015Z,19.07
2018-08-22T10:49:18.243Z,23.87
2018-08-22T10:51:46.481Z,16.63
2018-08-22T10:54:14.725Z,16.23
2018-08-22T10:56:42.958Z,17.90
2018-08-22T10:59:11.173Z,18.73
2018-08-22T11:01:39.362Z,17.83
2018-08-22T11:04:07.575Z,18.10
2018-08-22T11:06:35.783Z,15.80
2018-08-22T11:09:06.240Z,17.50
2018-08-22T11:11:34.527Z,17.20
2018-08-22T11:14:02.783Z,17.20
2018-08-22T11:16:30.979Z,27.43
2018-08-22T11:18:59.310Z,15.40
2018-08-22T11:21:38.971Z,20.70
2018-08-22T11:24:18.533Z,16.77
2018-08-22T11:26:57.959Z,29.00
2018-08-22T11:29:37.435Z,17.80
2018-08-22T11:32:17.060Z,22.10
2018-08-22T11:34:45.900Z,26.60
2018-08-22T11:37:15.191Z,17.80
2018-08-22T11:39:45.274Z,18.33
2018-08-22T11:42:13.499Z,19.90
2018-08-22T11:44:41.718Z,18.27
2018-08-22T11:47:09.912Z,20.40
2018-08-22T11:49:38.126Z,25.90
2018-08-22T11:52:06.372Z,15.83
2018-08-22T11:54:34.551Z,14.87
2018-08-22T11:57:02.947Z,14.43
2018-08-22T11:59:31.322Z,19.70
2018-08-22T12:01:59.577Z,21.47
2018-08-22T12:04:27.778Z,19.70
2018-08-22T12:06:56.035Z,20.90
2018-08-22T12:09:24.311Z,17.10
2018-08-22T12:11:52.499Z,14.03
2018-08-22T12:14:20.779Z,15.13
2018-08-22T12:16:48.985Z,14.60
2018-08-22T12:19:17.183Z,20.10
2018-08-22T12:21:45.382Z,18.10
2018-08-22T12:24:13.588Z,16.70
2018-08-22T12:26:41.794Z,15.03
2018-08-22T12:29:10.186Z,19.43
2018-08-22T12:31:38.424Z,18.43
2018-08-22T12:34:06.644Z,29.63
2018-08-22T12:36:34.847Z,18.50
2018-08-22T12:39:03.091Z,16.90
2018-08-22T12:41:31.401Z,16.80
2018-08-22T12:43:59.591Z,16.23
2018-08-22T12:46:27.779Z,18.33
2018-08-22T12:48:55.975Z,15.30
2018-08-22T12:51:24.181Z,13.70
2018-08-22T12:53:52.375Z,22.17
2018-08-22T12:56:20.607Z,14.73
2018-08-22T12:58:48.799Z,26.90
2018-08-22T13:01:16.986Z,19.27
2018-08-22T13:03:45.179Z,22.53
2018-08-22T13:06:13.377Z,17.77
2018-08-22T13:08:41.589Z,21.07
2018-08-22T13:11:09.893Z,18.17
2018-08-22T13:13:37.996Z,15.97
2018-08-22T13:16:06.198Z,17.93
2018-08-22T13:18:34.435Z,16.23
2018-08-22T13:21:02.631Z,15.50
2018-08-22T13:23:30.840Z,15.20
2018-08-22T13:25:59.027Z,15.13
2018-08-22T13:28:27.231Z,17.63
2018-08-22T13:30:55.432Z,14.90
2018-08-22T13:33:23.642Z,22.70
2018-08-22T13:35:51.838Z,19.13
2018-08-22T13:38:20.035Z,17.10
2018-08-22T13:40:48.235Z,19.73
2018-08-22T13:43:16.475Z,19.07
2018-08-22T13:45:44.672Z,15.60
2018-08-22T13:48:12.855Z,19.37
2018-08-22T13:50:41.072Z,15.93
2018-08-22T13:53:09.278Z,20.30
2018-08-22T13:55:37.555Z,13.30
2018-08-22T13:58:05.768Z,16.23
2018-08-22T14:00:33.967Z,17.83
2018-08-22T14:03:02.187Z,20.20
2018-08-22T14:05:30.400Z,14.87
2018-08-22T14:07:58.811Z,16.07
2018-08-22T14:10:27.019Z,13.47
2018-08-22T14:12:55.258Z,12.03
2018-08-22T14:15:23.512Z,18.00
2018-08-22T14:17:51.710Z,13.57
2018-08-22T14:20:19.919Z,15.10
2018-08-22T14:22:48.122Z,13.67
2018-08-22T14:25:16.325Z,16.97
2018-08-22T14:27:44.651Z,20.80
2018-08-22T14:30:12.854Z,13.87
2018-08-22T14:32:41.052Z,18.10
2018-08-22T14:35:09.286Z,18.97
2018-08-22T14:37:37.586Z,15.40
2018-08-22T14:40:05.823Z,15.13
2018-08-22T14:42:34.008Z,16.53
2018-08-22T14:45:02.259Z,25.43
2018-08-22T14:47:30.431Z,15.47
2018-08-22T14:50:10.687Z,19.67
2018-08-22T14:52:39.003Z,19.17
2018-08-22T14:55:07.255Z,20.50
2018-08-22T14:57:35.459Z,13.83
2018-08-22T15:00:03.711Z,18.50
2018-08-22T15:02:32.075Z,18.63
2018-08-22T15:05:00.233Z,16.83
2018-08-22T15:07:28.447Z,17.73
2018-08-22T15:09:56.655Z,19.20
2018-08-22T15:12:24.907Z,14.43
2018-08-22T15:14:53.198Z,18.90
2018-08-22T15:17:21.402Z,16.97
2018-08-22T15:19:49.604Z,16.87
2018-08-22T15:22:17.879Z,19.43
2018-08-22T15:24:46.099Z,15.00
2018-08-22T15:27:14.322Z,19.80
2018-08-22T15:29:42.506Z,15.20
2018-08-22T15:32:10.730Z,19.00
2018-08-22T15:34:47.619Z,17.20
2018-08-22T15:37:16.033Z,35.77
2018-08-22T15:42:46.371Z,27.90
2018-08-22T15:45:15.097Z,17.87
2018-08-22T15:47:43.428Z,15.00
2018-08-22T15:50:11.995Z,20.43
2018-08-22T15:52:40.271Z,14.53
2018-08-22T15:55:12.019Z,13.57
2018-08-22T15:57:55.731Z,18.40
2018-08-22T16:00:32.802Z,14.13
2018-08-22T16:03:02.393Z,18.40
2018-08-22T16:05:30.724Z,20.67
2018-08-22T16:07:59.242Z,16.20
2018-08-22T16:10:27.551Z,20.23
2018-08-22T16:12:55.823Z,18.87
2018-08-22T16:15:25.235Z,23.40
2018-08-22T16:17:54.367Z,19.03
2018-08-22T16:20:26.936Z,16.43
2018-08-22T16:22:55.359Z,16.03
2018-08-22T16:25:30.226Z,27.33
2018-08-22T16:27:58.547Z,24.83
2018-08-22T16:30:26.762Z,28.93
2018-08-22T16:32:55.735Z,18.70
2018-08-22T16:35:23.918Z,19.90
2018-08-22T16:38:05.562Z,27.37
2018-08-22T16:40:36.427Z,22.30
2018-08-22T16:43:04.752Z,27.03
2018-08-22T16:45:39.974Z,24.13
2018-08-22T16:48:08.335Z,26.53
2018-08-22T16:50:36.539Z,22.00
2018-08-22T16:53:04.762Z,32.47
2018-08-22T16:55:33.162Z,38.23
2018-08-22T16:58:01.502Z,35.93
2018-08-22T17:00:36.366Z,23.50
2018-08-22T17:03:05.903Z,25.90
2018-08-22T17:05:34.302Z,28.13
2018-08-22T17:08:02.532Z,25.40
2018-08-22T17:11:05.655Z,24.27
2018-08-22T17:13:45.836Z,19.50
2018-08-22T17:16:14.097Z,15.53
2018-08-22T17:18:42.296Z,22.90
2018-08-22T17:21:10.802Z,20.27
2018-08-22T17:23:39.292Z,19.03
2018-08-22T17:26:12.500Z,19.87
2018-08-22T17:28:42.610Z,22.00
2018-08-22T17:31:11.567Z,22.73
2018-08-22T17:33:47.191Z,28.60
2018-08-22T17:36:15.463Z,25.93
2018-08-22T17:38:44.528Z,23.60
2018-08-22T17:41:13.074Z,24.47
2018-08-22T17:43:57.814Z,21.43
2018-08-22T17:46:28.114Z,22.90
2018-08-22T17:48:56.478Z,27.87
2018-08-22T17:51:24.696Z,30.63
2018-08-22T17:53:52.898Z,27.90
2018-08-22T17:56:22.782Z,31.60
2018-08-22T17:58:52.116Z,24.33
2018-08-22T18:01:20.600Z,19.70
2018-08-22T18:03:48.800Z,25.57
2018-08-22T18:06:17.345Z,24.67
2018-08-22T18:08:45.531Z,37.77
2018-08-22T18:11:13.744Z,41.67
2018-08-22T18:13:42.391Z,37.47
2018-08-22T18:16:17.078Z,26.13
2018-08-22T18:18:45.367Z,22.53
2018-08-22T18:21:13.611Z,32.33
2018-08-22T18:23:52.412Z,23.60
2018-08-22T18:26:20.691Z,36.30
2018-08-22T18:28:48.894Z,31.13
2018-08-22T18:31:17.155Z,25.00
2018-08-22T18:33:57.266Z,31.90
2018-08-22T18:36:26.479Z,29.70
2018-08-22T18:39:02.667Z,19.20
2018-08-22T18:41:30.889Z,34.83
2018-08-22T18:43:59.102Z,35.80
2018-08-22T18:46:27.325Z,33.47
2018-08-22T18:48:55.581Z,25.73
2018-08-22T18:51:23.795Z,29.53
2018-08-22T18:53:52.067Z,34.00
2018-08-22T18:56:21.700Z,24.60
2018-08-22T18:58:49.995Z,24.60
2018-08-22T19:01:18.738Z,29.53
2018-08-22T19:03:47.010Z,25.27
2018-08-22T19:06:15.311Z,25.87
2018-08-22T19:08:43.519Z,33.93
2018-08-22T19:11:11.863Z,28.63
2018-08-22T19:13:40.032Z,21.67
2018-08-22T19:16:09.611Z,26.67
2018-08-22T19:18:37.937Z,35.43
2018-08-22T19:21:07.427Z,28.67
2018-08-22T19:23:35.731Z,25.83
2018-08-22T19:26:04.955Z,35.83
2018-08-22T19:29:06.178Z,24.70
2018-08-22T19:31:35.292Z,28.23
2018-08-22T19:34:03.552Z,23.70
2018-08-22T19:36:31.843Z,26.30
2018-08-22T19:39:00.154Z,28.40
2018-08-22T19:41:32.448Z,23.03
2018-08-22T19:44:00.687Z,25.97
2018-08-22T19:46:29.010Z,38.93
2018-08-22T19:48:57.351Z,27.70
2018-08-22T19:51:25.535Z,21.97
2018-08-22T19:54:02.178Z,29.70
2018-08-22T19:56:30.899Z,27.97
2018-08-22T19:58:59.350Z,23.70
2018-08-22T20:01:30.658Z,24.60
2018-08-22T20:03:59.064Z,24.07
2018-08-22T20:06:27.514Z,25.07
2018-08-22T20:08:57.219Z,24.40
2018-08-22T20:11:25.826Z,26.20
2018-08-22T20:13:58.594Z,28.40
2018-08-22T20:16:26.862Z,28.23
2018-08-22T20:18:57.251Z,26.77
2018-08-22T20:21:30.066Z,29.03
2018-08-22T20:23:58.532Z,30.63
2018-08-22T20:26:27.449Z,29.03
2018-08-22T20:28:57.735Z,29.20
2018-08-22T20:31:26.032Z,30.73
2018-08-22T20:34:02.508Z,34.73
2018-08-22T20:36:31.095Z,34.97
2018-08-22T20:39:00.933Z,29.67
2018-08-22T20:41:29.207Z,32.67
2018-08-22T20:43:57.485Z,42.03
2018-08-22T20:46:25.806Z,30.60
2018-08-22T20:48:54.055Z,33.60
2018-08-22T20:51:22.500Z,43.67
2018-08-22T20:53:56.415Z,32.03
2018-08-22T20:56:24.745Z,31.70
2018-08-22T20:58:52.926Z,31.07
2018-08-22T21:01:21.475Z,37.70
2018-08-22T21:03:50.716Z,34.53
2018-08-22T21:06:18.950Z,36.97
2018-08-22T21:08:47.399Z,34.83
2018-08-22T21:11:15.655Z,34.53
2018-08-22T21:17:03.960Z,34.13
2018-08-22T21:19:32.227Z,34.30
2018-08-22T21:22:00.779Z,36.10
2018-08-22T21:24:29.128Z,28.00
2018-08-22T21:26:57.372Z,29.23
2018-08-22T21:29:25.724Z,31.77
2018-08-22T21:31:53.958Z,32.57
2018-08-22T21:34:23.628Z,33.20
2018-08-22T21:36:51.877Z,30.97
2018-08-22T21:39:25.348Z,21.93
2018-08-22T21:41:53.879Z,37.23
2018-08-22T21:44:22.927Z,25.10
2018-08-22T21:46:57.479Z,29.17
2018-08-22T21:49:25.855Z,28.50
2018-08-22T21:51:56.905Z,24.03
2018-08-22T21:54:25.277Z,31.50
2018-08-22T21:56:53.505Z,30.77
2018-08-22T21:59:21.742Z,28.93
2018-08-22T22:01:55.362Z,32.20
2018-08-22T22:04:29.589Z,31.53
2018-08-22T22:06:57.874Z,34.50
2018-08-22T22:09:26.099Z,28.67
2018-08-22T22:11:57.463Z,33.60
2018-08-22T22:14:26.566Z,26.40
2018-08-22T22:16:56.654Z,35.27
2018-08-22T22:19:25.979Z,30.07
2018-08-22T22:21:54.210Z,28.83
2018-08-22T22:24:22.536Z,30.47
2018-08-22T22:26:50.747Z,30.10
2018-08-22T22:29:19.055Z,35.27
2018-08-22T22:31:47.288Z,28.93
2018-08-22T22:34:15.542Z,34.83
2018-08-22T22:36:43.779Z,30.67
2018-08-22T22:39:44.586Z,33.10
2018-08-22T22:42:29.555Z,43.90
2018-08-22T22:44:59.606Z,25.83
2018-08-22T22:47:30.951Z,25.63
2018-08-22T22:49:59.758Z,29.80
2018-08-22T22:52:33.418Z,32.93
2018-08-22T22:55:02.940Z,30.10
2018-08-22T22:57:33.452Z,30.10
2018-08-22T23:00:02.639Z,28.57
2018-08-22T23:02:31.502Z,34.90
2018-08-22T23:05:00.546Z,27.27
2018-08-22T23:07:33.151Z,29.00
2018-08-22T23:10:03.670Z,28.53
2018-08-22T23:12:47.141Z,25.97
2018-08-22T23:15:17.749Z,33.30
2018-08-22T23:17:48.187Z,33.37
2018-08-22T23:20:34.670Z,30.23
2018-08-22T23:23:03.355Z,26.30
2018-08-22T23:25:31.917Z,31.20
2018-08-22T23:28:00.116Z,25.63
2018-08-22T23:30:37.324Z,28.33
2018-08-22T23:33:06.417Z,29.67
2018-08-22T23:35:35.623Z,27.97
2018-08-22T23:38:05.367Z,29.70
2018-08-22T23:40:34.763Z,27.03
2018-08-22T23:43:02.982Z,31.00
2018-08-22T23:45:31.318Z,29.30
2018-08-22T23:47:59.571Z,32.03
2018-08-22T23:50:38.162Z,43.43
2018-08-22T23:53:06.511Z,26.20
2018-08-22T23:55:34.782Z,30.33
2018-08-22T23:58:02.990Z,31.00
